SKA15XF LFPO-GOBD
Flight info
| Callsign | SKA15XF |
|---|---|
| Flight time | N/A |
| Altitude | 37000 |
| Route | OLZOM J18 VEROS G54 CTX G28 LMG R10 BTZ R299 DONOS M299 PPN N10 CJN L27 BLN N869 MGA M985 PIMOS N869 GALTO UN869 SLK UB11 PELAX UN869 ADM UR975 SAKLI |
| Aircraft | B38M/M-SDE1FGHILORVWXY/HB1 |
Departure
| Time | N/A |
|---|---|
| Airport | Paris-Orly Airport (LFPO) |
Arrival
| Time | 2026-04-29 19:43 |
|---|---|
| Airport | Blaise Diagne International Airport (GOBD) |
| Time | Latitude | Longitude | Altitude | Speed | Heading |
|---|---|---|---|---|---|
| 2026-04-29 14:18 | 47.52453 | 2.21593 | 26222 ft | 459 kts | 184° |
| 2026-04-29 14:18 | 47.49276 | 2.21347 | 26550 ft | 461 kts | 184° |
| 2026-04-29 14:18 | 47.46100 | 2.21101 | 26871 ft | 463 kts | 184° |
| 2026-04-29 14:19 | 47.42876 | 2.20852 | 27173 ft | 465 kts | 184° |
| 2026-04-29 14:19 | 47.39627 | 2.20601 | 27482 ft | 467 kts | 184° |
| 2026-04-29 14:19 | 47.36391 | 2.20221 | 27759 ft | 468 kts | 192° |
| 2026-04-29 14:19 | 47.33291 | 2.18772 | 28078 ft | 466 kts | 205° |
| 2026-04-29 14:20 | 47.30487 | 2.16387 | 28303 ft | 468 kts | 216° |
| 2026-04-29 14:20 | 47.27790 | 2.13695 | 28663 ft | 468 kts | 214° |
| 2026-04-29 14:20 | 47.25113 | 2.11059 | 29037 ft | 467 kts | 215° |
| 2026-04-29 14:20 | 47.22418 | 2.08394 | 29446 ft | 466 kts | 215° |
| 2026-04-29 14:21 | 47.19735 | 2.05742 | 29850 ft | 464 kts | 215° |
| 2026-04-29 14:21 | 47.17068 | 2.03107 | 30225 ft | 463 kts | 215° |
| 2026-04-29 14:21 | 47.14396 | 2.00471 | 30588 ft | 462 kts | 215° |
| 2026-04-29 14:21 | 47.11732 | 1.97845 | 30947 ft | 460 kts | 214° |
| 2026-04-29 14:22 | 47.09082 | 1.95236 | 31322 ft | 458 kts | 214° |
| 2026-04-29 14:22 | 47.06436 | 1.92635 | 31688 ft | 456 kts | 214° |
| 2026-04-29 14:22 | 47.03817 | 1.90064 | 32005 ft | 455 kts | 214° |
| 2026-04-29 14:22 | 47.01190 | 1.87488 | 32332 ft | 454 kts | 214° |
| 2026-04-29 14:23 | 46.98568 | 1.84920 | 32655 ft | 453 kts | 214° |
| 2026-04-29 14:23 | 46.95952 | 1.82361 | 32949 ft | 452 kts | 214° |
| 2026-04-29 14:23 | 46.93303 | 1.79899 | 33231 ft | 451 kts | 208° |
| 2026-04-29 14:23 | 46.90480 | 1.77892 | 33530 ft | 450 kts | 207° |
| 2026-04-29 14:24 | 46.87662 | 1.75891 | 33767 ft | 450 kts | 207° |
| 2026-04-29 14:24 | 46.84839 | 1.73899 | 34062 ft | 449 kts | 207° |
| 2026-04-29 14:24 | 46.82052 | 1.71939 | 34319 ft | 448 kts | 207° |
| 2026-04-29 14:24 | 46.79239 | 1.69963 | 34559 ft | 448 kts | 207° |
| 2026-04-29 14:25 | 46.76431 | 1.67994 | 34801 ft | 447 kts | 207° |
| 2026-04-29 14:25 | 46.73629 | 1.66031 | 34971 ft | 447 kts | 206° |
| 2026-04-29 14:25 | 46.68030 | 1.62115 | 34955 ft | 445 kts | 206° |
| 2026-04-29 14:26 | 46.62469 | 1.58235 | 34964 ft | 446 kts | 206° |
| 2026-04-29 14:26 | 46.56893 | 1.54354 | 34962 ft | 445 kts | 206° |
| 2026-04-29 14:27 | 46.51299 | 1.50469 | 34963 ft | 446 kts | 206° |
| 2026-04-29 14:28 | 46.42910 | 1.44639 | 34956 ft | 445 kts | 206° |
| 2026-04-29 14:28 | 46.37330 | 1.40766 | 34956 ft | 446 kts | 206° |
| 2026-04-29 14:29 | 46.31739 | 1.36895 | 34943 ft | 445 kts | 206° |
| 2026-04-29 14:29 | 46.26149 | 1.33032 | 34938 ft | 445 kts | 206° |
| 2026-04-29 14:30 | 46.20517 | 1.29150 | 34941 ft | 445 kts | 206° |
| 2026-04-29 14:30 | 46.14942 | 1.25316 | 34941 ft | 445 kts | 206° |
| 2026-04-29 14:31 | 46.09356 | 1.21483 | 34944 ft | 445 kts | 206° |
| 2026-04-29 14:31 | 46.03770 | 1.17659 | 34943 ft | 445 kts | 206° |
| 2026-04-29 14:32 | 45.98186 | 1.13844 | 34945 ft | 445 kts | 206° |
| 2026-04-29 14:32 | 45.92612 | 1.10045 | 34936 ft | 444 kts | 206° |
| 2026-04-29 14:33 | 45.87033 | 1.06250 | 34935 ft | 444 kts | 206° |
| 2026-04-29 14:33 | 45.81523 | 1.02404 | 34918 ft | 442 kts | 213° |
| 2026-04-29 14:34 | 45.76571 | 0.97221 | 34906 ft | 443 kts | 216° |
| 2026-04-29 14:34 | 45.71627 | 0.92029 | 34944 ft | 442 kts | 217° |
| 2026-04-29 14:35 | 45.66679 | 0.86820 | 34937 ft | 441 kts | 217° |
| 2026-04-29 14:35 | 45.61734 | 0.81625 | 34930 ft | 441 kts | 217° |
| 2026-04-29 14:36 | 45.56789 | 0.76442 | 34922 ft | 441 kts | 216° |
| 2026-04-29 14:36 | 45.51850 | 0.71277 | 34925 ft | 441 kts | 216° |
| 2026-04-29 14:37 | 45.46908 | 0.66111 | 34922 ft | 441 kts | 216° |
| 2026-04-29 14:37 | 45.41959 | 0.60946 | 34928 ft | 441 kts | 216° |
| 2026-04-29 14:38 | 45.37846 | 0.56661 | 34919 ft | 440 kts | 216° |
| 2026-04-29 14:38 | 45.32899 | 0.51517 | 34917 ft | 440 kts | 216° |
| 2026-04-29 14:39 | 45.27972 | 0.46407 | 34917 ft | 440 kts | 216° |
| 2026-04-29 14:39 | 45.23026 | 0.41288 | 34914 ft | 440 kts | 216° |
| 2026-04-29 14:40 | 45.18058 | 0.36157 | 34919 ft | 441 kts | 216° |
| 2026-04-29 14:40 | 45.13099 | 0.31046 | 34915 ft | 441 kts | 216° |
| 2026-04-29 14:41 | 45.08156 | 0.25964 | 34917 ft | 441 kts | 216° |
| 2026-04-29 14:41 | 45.03187 | 0.20865 | 34917 ft | 441 kts | 216° |
| 2026-04-29 14:42 | 44.98223 | 0.15782 | 34918 ft | 441 kts | 216° |
| 2026-04-29 14:42 | 44.93250 | 0.10695 | 34917 ft | 441 kts | 216° |
| 2026-04-29 14:43 | 44.88291 | 0.05632 | 34914 ft | 441 kts | 216° |
| 2026-04-29 14:43 | 44.83312 | 0.00560 | 34915 ft | 441 kts | 216° |
| 2026-04-29 14:44 | 44.78338 | -0.04498 | 34918 ft | 440 kts | 215° |
| 2026-04-29 14:44 | 44.73400 | -0.09504 | 34905 ft | 436 kts | 215° |
| 2026-04-29 14:45 | 44.68502 | -0.14467 | 34907 ft | 437 kts | 216° |
| 2026-04-29 14:45 | 44.63786 | -0.19851 | 34914 ft | 437 kts | 218° |
| 2026-04-29 14:46 | 44.59060 | -0.25218 | 34908 ft | 437 kts | 218° |
| 2026-04-29 14:46 | 44.54326 | -0.30569 | 34906 ft | 437 kts | 218° |
| 2026-04-29 14:47 | 44.49606 | -0.35893 | 34906 ft | 437 kts | 218° |
| 2026-04-29 14:47 | 44.44864 | -0.41229 | 34906 ft | 437 kts | 218° |
| 2026-04-29 14:48 | 44.40114 | -0.46563 | 34907 ft | 438 kts | 218° |
| 2026-04-29 14:48 | 44.35363 | -0.51887 | 34899 ft | 438 kts | 218° |
| 2026-04-29 14:49 | 44.30590 | -0.57224 | 34896 ft | 438 kts | 218° |
| 2026-04-29 14:49 | 44.25872 | -0.62488 | 34895 ft | 438 kts | 218° |
| 2026-04-29 14:50 | 44.21105 | -0.67797 | 34890 ft | 438 kts | 218° |
| 2026-04-29 14:50 | 44.16437 | -0.73242 | 34889 ft | 438 kts | 219° |
| 2026-04-29 14:51 | 44.11783 | -0.78666 | 34888 ft | 438 kts | 219° |
| 2026-04-29 14:51 | 44.07099 | -0.84109 | 34888 ft | 438 kts | 219° |
| 2026-04-29 14:52 | 44.02422 | -0.89532 | 34887 ft | 438 kts | 219° |
| 2026-04-29 14:52 | 43.97735 | -0.94955 | 34885 ft | 438 kts | 219° |
| 2026-04-29 14:53 | 43.93076 | -1.00323 | 34885 ft | 439 kts | 217° |
| 2026-04-29 14:53 | 43.88183 | -1.05481 | 34888 ft | 439 kts | 216° |
| 2026-04-29 14:54 | 43.83366 | -1.10578 | 34883 ft | 439 kts | 216° |
| 2026-04-29 14:54 | 43.78478 | -1.15745 | 34880 ft | 439 kts | 216° |
| 2026-04-29 14:55 | 43.73717 | -1.20897 | 34878 ft | 439 kts | 218° |
| 2026-04-29 14:55 | 43.68964 | -1.26232 | 34878 ft | 439 kts | 218° |
| 2026-04-29 14:56 | 43.64210 | -1.31537 | 34877 ft | 439 kts | 218° |
| 2026-04-29 14:56 | 43.59454 | -1.36831 | 34877 ft | 439 kts | 218° |
| 2026-04-29 14:57 | 43.54713 | -1.42098 | 34869 ft | 439 kts | 217° |
| 2026-04-29 14:57 | 43.49945 | -1.47351 | 34855 ft | 439 kts | 214° |
| 2026-04-29 14:57 | 43.47373 | -1.49296 | 34836 ft | 435 kts | 199° |
| 2026-04-29 14:58 | 43.44454 | -1.50230 | 34883 ft | 434 kts | 184° |
| 2026-04-29 14:58 | 43.38396 | -1.50054 | 34868 ft | 437 kts | 177° |
| 2026-04-29 14:59 | 43.32354 | -1.49533 | 34861 ft | 437 kts | 176° |
| 2026-04-29 14:59 | 43.26331 | -1.48711 | 34870 ft | 437 kts | 173° |
| 2026-04-29 15:00 | 43.20285 | -1.47627 | 34856 ft | 438 kts | 173° |
| 2026-04-29 15:00 | 43.14241 | -1.46570 | 34872 ft | 437 kts | 173° |
| 2026-04-29 15:01 | 43.08195 | -1.45685 | 34863 ft | 436 kts | 182° |
| 2026-04-29 15:01 | 43.05218 | -1.46325 | 34886 ft | 434 kts | 198° |
| 2026-04-29 15:01 | 43.02470 | -1.47981 | 34899 ft | 437 kts | 207° |
| 2026-04-29 15:02 | 42.97108 | -1.51931 | 34902 ft | 438 kts | 208° |
| 2026-04-29 15:02 | 42.91780 | -1.56004 | 34897 ft | 439 kts | 208° |
| 2026-04-29 15:03 | 42.86464 | -1.60109 | 34904 ft | 438 kts | 208° |
| 2026-04-29 15:03 | 42.81143 | -1.64218 | 34906 ft | 439 kts | 208° |
| 2026-04-29 15:04 | 42.75862 | -1.68287 | 34904 ft | 439 kts | 208° |
| 2026-04-29 15:04 | 42.70445 | -1.72094 | 34916 ft | 439 kts | 205° |
| 2026-04-29 15:05 | 42.64961 | -1.75785 | 34903 ft | 439 kts | 205° |
| 2026-04-29 15:05 | 42.59477 | -1.79491 | 34903 ft | 439 kts | 205° |
| 2026-04-29 15:06 | 42.54076 | -1.83135 | 34896 ft | 439 kts | 205° |
| 2026-04-29 15:06 | 42.48713 | -1.86747 | 34885 ft | 439 kts | 205° |
| 2026-04-29 15:07 | 42.43263 | -1.90409 | 34881 ft | 439 kts | 205° |
| 2026-04-29 15:07 | 42.38311 | -1.93708 | 34884 ft | 439 kts | 205° |
| 2026-04-29 15:08 | 42.33674 | -1.96797 | 34867 ft | 437 kts | 205° |
| 2026-04-29 15:08 | 42.28222 | -2.00427 | 34870 ft | 437 kts | 205° |
| 2026-04-29 15:09 | 42.22760 | -2.04043 | 34869 ft | 437 kts | 205° |
| 2026-04-29 15:09 | 42.17304 | -2.07650 | 34869 ft | 437 kts | 205° |
| 2026-04-29 15:10 | 42.11872 | -2.11239 | 34872 ft | 437 kts | 205° |
| 2026-04-29 15:10 | 42.06410 | -2.14837 | 34870 ft | 437 kts | 205° |
| 2026-04-29 15:11 | 42.00943 | -2.18434 | 34868 ft | 437 kts | 205° |
| 2026-04-29 15:11 | 41.95491 | -2.22014 | 34868 ft | 437 kts | 205° |
| 2026-04-29 15:12 | 41.90034 | -2.25591 | 34867 ft | 437 kts | 205° |
| 2026-04-29 15:12 | 41.84564 | -2.29169 | 34867 ft | 437 kts | 205° |
| 2026-04-29 15:13 | 41.79101 | -2.32736 | 34868 ft | 437 kts | 205° |
| 2026-04-29 15:13 | 41.73623 | -2.36306 | 34862 ft | 437 kts | 205° |
| 2026-04-29 15:14 | 41.68172 | -2.39851 | 34862 ft | 438 kts | 205° |
| 2026-04-29 15:14 | 41.62691 | -2.43409 | 34882 ft | 438 kts | 205° |
| 2026-04-29 15:15 | 41.57215 | -2.46957 | 34880 ft | 438 kts | 206° |
| 2026-04-29 15:15 | 41.51734 | -2.50503 | 34894 ft | 438 kts | 206° |
| 2026-04-29 15:16 | 41.46253 | -2.54039 | 34897 ft | 439 kts | 206° |
| 2026-04-29 15:16 | 41.40759 | -2.57578 | 34895 ft | 438 kts | 206° |
| 2026-04-29 15:17 | 41.36186 | -2.60519 | 34899 ft | 439 kts | 206° |
| 2026-04-29 15:17 | 41.33337 | -2.62071 | 34869 ft | 438 kts | 194° |
| 2026-04-29 15:17 | 41.30315 | -2.62567 | 34885 ft | 438 kts | 180° |
| 2026-04-29 15:18 | 41.24215 | -2.62190 | 34887 ft | 442 kts | 178° |
| 2026-04-29 15:18 | 41.18054 | -2.61692 | 34896 ft | 443 kts | 178° |
| 2026-04-29 15:19 | 41.11902 | -2.61150 | 34896 ft | 443 kts | 178° |
| 2026-04-29 15:19 | 41.05738 | -2.60601 | 34899 ft | 444 kts | 178° |
| 2026-04-29 15:20 | 40.99587 | -2.60055 | 34898 ft | 444 kts | 178° |
| 2026-04-29 15:20 | 40.93422 | -2.59498 | 34895 ft | 445 kts | 178° |
| 2026-04-29 15:21 | 40.87242 | -2.58940 | 34895 ft | 445 kts | 178° |
| 2026-04-29 15:21 | 40.81051 | -2.58382 | 34903 ft | 446 kts | 178° |
| 2026-04-29 15:22 | 40.74850 | -2.57825 | 34908 ft | 446 kts | 178° |
| 2026-04-29 15:22 | 40.68673 | -2.57271 | 34906 ft | 447 kts | 178° |
| 2026-04-29 15:23 | 40.62460 | -2.56714 | 34908 ft | 447 kts | 178° |
| 2026-04-29 15:23 | 40.56240 | -2.56158 | 34899 ft | 448 kts | 178° |
| 2026-04-29 15:24 | 40.50020 | -2.55602 | 34897 ft | 448 kts | 178° |
| 2026-04-29 15:24 | 40.43861 | -2.55054 | 34898 ft | 449 kts | 179° |
| 2026-04-29 15:25 | 40.37617 | -2.54845 | 34860 ft | 443 kts | 192° |
| 2026-04-29 15:25 | 40.31820 | -2.57287 | 34857 ft | 442 kts | 201° |
| 2026-04-29 15:26 | 40.26033 | -2.60097 | 34887 ft | 442 kts | 202° |
| 2026-04-29 15:26 | 40.20296 | -2.62958 | 34886 ft | 442 kts | 203° |
| 2026-04-29 15:27 | 40.14555 | -2.65832 | 34892 ft | 442 kts | 203° |
| 2026-04-29 15:27 | 40.08816 | -2.68701 | 34890 ft | 442 kts | 203° |
| 2026-04-29 15:28 | 40.03075 | -2.71565 | 34886 ft | 442 kts | 203° |
| 2026-04-29 15:28 | 39.97357 | -2.74415 | 34889 ft | 442 kts | 203° |
| 2026-04-29 15:29 | 39.91634 | -2.77259 | 34893 ft | 442 kts | 203° |
| 2026-04-29 15:30 | 39.80143 | -2.82957 | 34892 ft | 441 kts | 203° |
| 2026-04-29 15:30 | 39.74424 | -2.85786 | 34901 ft | 442 kts | 203° |
| 2026-04-29 15:31 | 39.68667 | -2.88628 | 34895 ft | 441 kts | 203° |
| 2026-04-29 15:31 | 39.62930 | -2.91456 | 34898 ft | 441 kts | 203° |
| 2026-04-29 15:32 | 39.57182 | -2.94288 | 34902 ft | 441 kts | 203° |
| 2026-04-29 15:32 | 39.51457 | -2.97107 | 34905 ft | 441 kts | 203° |
| 2026-04-29 15:33 | 39.45751 | -2.99913 | 34908 ft | 441 kts | 203° |
| 2026-04-29 15:33 | 39.39972 | -3.02747 | 34906 ft | 441 kts | 203° |
| 2026-04-29 15:34 | 39.34265 | -3.05529 | 34907 ft | 441 kts | 203° |
| 2026-04-29 15:34 | 39.28542 | -3.08316 | 34905 ft | 441 kts | 203° |
| 2026-04-29 15:35 | 39.22791 | -3.11110 | 34907 ft | 441 kts | 203° |
| 2026-04-29 15:35 | 39.17043 | -3.13900 | 34912 ft | 441 kts | 203° |
| 2026-04-29 15:36 | 39.11287 | -3.16687 | 34916 ft | 441 kts | 202° |
| 2026-04-29 15:36 | 39.05519 | -3.19476 | 34917 ft | 441 kts | 202° |
| 2026-04-29 15:37 | 38.99805 | -3.22233 | 34915 ft | 441 kts | 202° |
| 2026-04-29 15:37 | 38.94076 | -3.24992 | 34913 ft | 442 kts | 202° |
| 2026-04-29 15:38 | 38.88321 | -3.27759 | 34917 ft | 442 kts | 202° |
| 2026-04-29 15:38 | 38.82537 | -3.30534 | 34916 ft | 442 kts | 202° |
| 2026-04-29 15:39 | 38.76780 | -3.33292 | 34917 ft | 442 kts | 202° |
| 2026-04-29 15:39 | 38.71013 | -3.36050 | 34916 ft | 442 kts | 202° |
| 2026-04-29 15:40 | 38.65253 | -3.38799 | 34917 ft | 442 kts | 202° |
| 2026-04-29 15:40 | 38.59499 | -3.41542 | 35117 ft | 443 kts | 202° |
| 2026-04-29 15:40 | 38.56613 | -3.42916 | 35368 ft | 442 kts | 202° |
| 2026-04-29 15:41 | 38.53729 | -3.44287 | 35589 ft | 442 kts | 202° |
| 2026-04-29 15:41 | 38.50844 | -3.45658 | 35813 ft | 441 kts | 202° |
| 2026-04-29 15:41 | 38.47972 | -3.47021 | 36019 ft | 441 kts | 202° |
| 2026-04-29 15:41 | 38.45097 | -3.48386 | 36211 ft | 441 kts | 202° |
| 2026-04-29 15:42 | 38.42228 | -3.49745 | 36394 ft | 440 kts | 202° |
| 2026-04-29 15:42 | 38.39348 | -3.51109 | 36551 ft | 440 kts | 202° |
| 2026-04-29 15:42 | 38.36498 | -3.52458 | 36739 ft | 440 kts | 202° |
| 2026-04-29 15:42 | 38.33636 | -3.53810 | 36946 ft | 437 kts | 202° |
| 2026-04-29 15:43 | 38.30792 | -3.55153 | 36947 ft | 433 kts | 203° |
| 2026-04-29 15:43 | 38.25191 | -3.57796 | 36944 ft | 429 kts | 202° |
| 2026-04-29 15:44 | 38.19583 | -3.60438 | 36914 ft | 430 kts | 203° |
| 2026-04-29 15:44 | 38.14042 | -3.63238 | 36929 ft | 428 kts | 207° |
| 2026-04-29 15:45 | 38.08644 | -3.66349 | 36939 ft | 429 kts | 206° |
| 2026-04-29 15:45 | 38.03206 | -3.69429 | 36938 ft | 428 kts | 206° |
| 2026-04-29 15:46 | 37.97747 | -3.72508 | 36935 ft | 429 kts | 206° |
| 2026-04-29 15:46 | 37.92300 | -3.75576 | 36935 ft | 429 kts | 206° |
| 2026-04-29 15:47 | 37.86861 | -3.78634 | 36930 ft | 429 kts | 206° |
| 2026-04-29 15:47 | 37.81403 | -3.81698 | 36933 ft | 429 kts | 206° |
| 2026-04-29 15:48 | 37.75952 | -3.84753 | 36931 ft | 429 kts | 206° |
| 2026-04-29 15:48 | 37.70498 | -3.87805 | 36915 ft | 429 kts | 206° |
| 2026-04-29 15:49 | 37.65059 | -3.90843 | 36935 ft | 429 kts | 206° |
| 2026-04-29 15:49 | 37.59586 | -3.93896 | 36932 ft | 429 kts | 206° |
| 2026-04-29 15:50 | 37.54129 | -3.96934 | 36930 ft | 429 kts | 206° |
| 2026-04-29 15:50 | 37.48667 | -3.99971 | 36944 ft | 429 kts | 206° |
| 2026-04-29 15:51 | 37.43213 | -4.02998 | 36930 ft | 428 kts | 206° |
| 2026-04-29 15:51 | 37.37792 | -4.06002 | 36935 ft | 428 kts | 206° |
| 2026-04-29 15:52 | 37.32301 | -4.09040 | 36929 ft | 428 kts | 206° |
| 2026-04-29 15:52 | 37.26847 | -4.12053 | 36934 ft | 428 kts | 206° |
| 2026-04-29 15:53 | 37.21402 | -4.15056 | 36932 ft | 428 kts | 206° |
| 2026-04-29 15:53 | 37.15976 | -4.18044 | 36931 ft | 429 kts | 206° |
| 2026-04-29 15:54 | 37.10514 | -4.21047 | 36935 ft | 429 kts | 206° |
| 2026-04-29 15:54 | 37.05054 | -4.24044 | 36930 ft | 428 kts | 206° |
| 2026-04-29 15:55 | 36.99620 | -4.27022 | 36934 ft | 428 kts | 206° |
| 2026-04-29 15:55 | 36.94148 | -4.30016 | 36917 ft | 429 kts | 206° |
| 2026-04-29 15:56 | 36.89562 | -4.32523 | 36906 ft | 429 kts | 206° |
| 2026-04-29 15:56 | 36.84132 | -4.35486 | 36912 ft | 429 kts | 206° |
| 2026-04-29 15:57 | 36.78912 | -4.38998 | 36947 ft | 425 kts | 214° |
| 2026-04-29 15:57 | 36.73926 | -4.42939 | 36899 ft | 425 kts | 214° |
| 2026-04-29 15:58 | 36.68941 | -4.46897 | 36912 ft | 426 kts | 215° |
| 2026-04-29 15:58 | 36.63943 | -4.50862 | 36918 ft | 426 kts | 215° |
| 2026-04-29 15:59 | 36.58913 | -4.54847 | 36912 ft | 426 kts | 214° |
| 2026-04-29 15:59 | 36.53930 | -4.58789 | 36919 ft | 426 kts | 214° |
| 2026-04-29 16:00 | 36.48961 | -4.62714 | 36913 ft | 426 kts | 214° |
| 2026-04-29 16:00 | 36.43961 | -4.66656 | 36908 ft | 426 kts | 214° |
| 2026-04-29 16:01 | 36.38957 | -4.70597 | 36928 ft | 426 kts | 214° |
| 2026-04-29 16:01 | 36.33970 | -4.74517 | 36927 ft | 426 kts | 214° |
| 2026-04-29 16:02 | 36.28962 | -4.78448 | 36913 ft | 426 kts | 214° |
| 2026-04-29 16:02 | 36.23945 | -4.82380 | 36928 ft | 426 kts | 214° |
| 2026-04-29 16:03 | 36.18937 | -4.86299 | 36939 ft | 426 kts | 214° |
| 2026-04-29 16:03 | 36.13957 | -4.90215 | 36933 ft | 426 kts | 215° |
| 2026-04-29 16:04 | 36.08963 | -4.94169 | 36937 ft | 426 kts | 215° |
| 2026-04-29 16:04 | 36.03964 | -4.98121 | 36946 ft | 426 kts | 215° |
| 2026-04-29 16:05 | 35.98978 | -5.02055 | 36952 ft | 426 kts | 214° |
| 2026-04-29 16:05 | 35.93983 | -5.05990 | 36954 ft | 426 kts | 214° |
| 2026-04-29 16:06 | 35.89032 | -5.09885 | 36953 ft | 426 kts | 214° |
| 2026-04-29 16:06 | 35.84036 | -5.13817 | 36961 ft | 426 kts | 216° |
| 2026-04-29 16:07 | 35.79334 | -5.18204 | 36973 ft | 425 kts | 219° |
| 2026-04-29 16:07 | 35.74605 | -5.22584 | 36959 ft | 424 kts | 219° |
| 2026-04-29 16:08 | 35.69895 | -5.26919 | 36953 ft | 424 kts | 219° |
| 2026-04-29 16:08 | 35.65156 | -5.31271 | 36948 ft | 425 kts | 219° |
| 2026-04-29 16:09 | 35.60423 | -5.35612 | 36945 ft | 425 kts | 219° |
| 2026-04-29 16:09 | 35.55681 | -5.39953 | 36943 ft | 425 kts | 219° |
| 2026-04-29 16:10 | 35.50951 | -5.44277 | 36946 ft | 425 kts | 218° |
| 2026-04-29 16:10 | 35.46215 | -5.48601 | 36943 ft | 424 kts | 218° |
| 2026-04-29 16:11 | 35.41475 | -5.52922 | 36942 ft | 425 kts | 218° |
| 2026-04-29 16:11 | 35.36740 | -5.57231 | 36944 ft | 424 kts | 218° |
| 2026-04-29 16:12 | 35.32008 | -5.61531 | 36941 ft | 425 kts | 218° |
| 2026-04-29 16:12 | 35.27261 | -5.65838 | 36943 ft | 425 kts | 218° |
| 2026-04-29 16:13 | 35.22536 | -5.70120 | 36948 ft | 425 kts | 218° |
| 2026-04-29 16:13 | 35.17787 | -5.74416 | 36949 ft | 425 kts | 218° |
| 2026-04-29 16:14 | 35.12995 | -5.78745 | 36944 ft | 425 kts | 218° |
| 2026-04-29 16:14 | 35.08281 | -5.82997 | 36942 ft | 425 kts | 218° |
| 2026-04-29 16:15 | 35.03516 | -5.87289 | 36945 ft | 425 kts | 218° |
| 2026-04-29 16:15 | 34.98726 | -5.91596 | 36945 ft | 425 kts | 218° |
| 2026-04-29 16:16 | 34.93995 | -5.95845 | 36943 ft | 425 kts | 218° |
| 2026-04-29 16:16 | 34.89234 | -6.00115 | 36946 ft | 426 kts | 218° |
| 2026-04-29 16:17 | 34.84454 | -6.04394 | 36944 ft | 426 kts | 218° |
| 2026-04-29 16:17 | 34.79685 | -6.08658 | 36941 ft | 426 kts | 218° |
| 2026-04-29 16:18 | 34.74905 | -6.12925 | 36943 ft | 426 kts | 218° |
| 2026-04-29 16:18 | 34.70140 | -6.17173 | 36944 ft | 426 kts | 218° |
| 2026-04-29 16:19 | 34.65359 | -6.21429 | 36943 ft | 426 kts | 218° |
| 2026-04-29 16:19 | 34.60565 | -6.25691 | 36945 ft | 426 kts | 218° |
| 2026-04-29 16:20 | 34.55783 | -6.29935 | 36944 ft | 426 kts | 218° |
| 2026-04-29 16:20 | 34.51008 | -6.34167 | 36943 ft | 426 kts | 218° |
| 2026-04-29 16:21 | 34.46222 | -6.38402 | 36944 ft | 426 kts | 217° |
| 2026-04-29 16:21 | 34.41430 | -6.42637 | 36942 ft | 426 kts | 217° |
| 2026-04-29 16:22 | 34.36631 | -6.46871 | 36944 ft | 426 kts | 217° |
| 2026-04-29 16:22 | 34.31838 | -6.51094 | 36944 ft | 426 kts | 217° |
| 2026-04-29 16:23 | 34.27049 | -6.55308 | 36944 ft | 427 kts | 217° |
| 2026-04-29 16:23 | 34.22248 | -6.59526 | 36944 ft | 427 kts | 217° |
| 2026-04-29 16:24 | 34.17448 | -6.63738 | 36941 ft | 427 kts | 217° |
| 2026-04-29 16:24 | 34.12643 | -6.67949 | 36945 ft | 427 kts | 217° |
| 2026-04-29 16:25 | 34.07852 | -6.72142 | 36942 ft | 426 kts | 217° |
| 2026-04-29 16:25 | 34.02995 | -6.76238 | 36935 ft | 426 kts | 216° |
| 2026-04-29 16:26 | 33.98090 | -6.80265 | 36931 ft | 426 kts | 216° |
| 2026-04-29 16:26 | 33.93176 | -6.84305 | 36938 ft | 428 kts | 216° |
| 2026-04-29 16:27 | 33.88315 | -6.88299 | 36943 ft | 428 kts | 216° |
| 2026-04-29 16:27 | 33.83395 | -6.92334 | 36937 ft | 428 kts | 216° |
| 2026-04-29 16:28 | 33.78450 | -6.96385 | 36931 ft | 428 kts | 216° |
| 2026-04-29 16:28 | 33.73560 | -7.00385 | 36934 ft | 428 kts | 216° |
| 2026-04-29 16:29 | 33.68648 | -7.04396 | 36934 ft | 428 kts | 216° |
| 2026-04-29 16:29 | 33.63720 | -7.08416 | 36935 ft | 428 kts | 215° |
| 2026-04-29 16:30 | 33.58792 | -7.12430 | 36934 ft | 428 kts | 215° |
| 2026-04-29 16:30 | 33.53867 | -7.16436 | 36935 ft | 428 kts | 215° |
| 2026-04-29 16:31 | 33.48955 | -7.20425 | 36934 ft | 428 kts | 215° |
| 2026-04-29 16:31 | 33.44026 | -7.24423 | 36936 ft | 428 kts | 215° |
| 2026-04-29 16:32 | 33.39097 | -7.28415 | 36933 ft | 428 kts | 215° |
| 2026-04-29 16:32 | 33.34165 | -7.32404 | 36934 ft | 428 kts | 215° |
| 2026-04-29 16:33 | 33.26766 | -7.38379 | 36935 ft | 428 kts | 215° |
| 2026-04-29 16:33 | 33.21831 | -7.42357 | 36934 ft | 428 kts | 215° |
| 2026-04-29 16:34 | 33.16891 | -7.46334 | 36935 ft | 428 kts | 215° |
| 2026-04-29 16:34 | 33.11942 | -7.50293 | 36932 ft | 429 kts | 212° |
| 2026-04-29 16:35 | 33.07674 | -7.53277 | 36940 ft | 429 kts | 212° |
| 2026-04-29 16:35 | 33.01682 | -7.57513 | 36941 ft | 429 kts | 212° |
| 2026-04-29 16:36 | 32.96544 | -7.61153 | 36935 ft | 429 kts | 212° |
| 2026-04-29 16:36 | 32.92280 | -7.64170 | 36932 ft | 429 kts | 212° |
| 2026-04-29 16:37 | 32.86317 | -7.68384 | 36935 ft | 429 kts | 212° |
| 2026-04-29 16:37 | 32.82006 | -7.71405 | 36933 ft | 429 kts | 212° |
| 2026-04-29 16:38 | 32.76846 | -7.75017 | 36936 ft | 430 kts | 212° |
| 2026-04-29 16:38 | 32.71694 | -7.78619 | 36935 ft | 430 kts | 212° |
| 2026-04-29 16:39 | 32.66560 | -7.82204 | 36935 ft | 430 kts | 212° |
| 2026-04-29 16:39 | 32.61385 | -7.85812 | 36933 ft | 430 kts | 211° |
| 2026-04-29 16:40 | 32.56245 | -7.89392 | 36935 ft | 431 kts | 211° |
| 2026-04-29 16:40 | 32.51069 | -7.92991 | 36933 ft | 431 kts | 211° |
| 2026-04-29 16:41 | 32.45898 | -7.96582 | 36934 ft | 431 kts | 211° |
| 2026-04-29 16:41 | 32.40732 | -8.00165 | 36935 ft | 431 kts | 211° |
| 2026-04-29 16:42 | 32.35553 | -8.03752 | 36915 ft | 432 kts | 211° |
| 2026-04-29 16:42 | 32.30362 | -8.07344 | 36936 ft | 432 kts | 211° |
| 2026-04-29 16:43 | 32.25182 | -8.10921 | 36934 ft | 432 kts | 211° |
| 2026-04-29 16:43 | 32.20010 | -8.14489 | 36934 ft | 432 kts | 211° |
| 2026-04-29 16:44 | 32.14821 | -8.18065 | 36934 ft | 432 kts | 211° |
| 2026-04-29 16:44 | 32.09615 | -8.21586 | 36935 ft | 432 kts | 211° |
| 2026-04-29 16:45 | 32.04396 | -8.25093 | 36935 ft | 432 kts | 211° |
| 2026-04-29 16:45 | 31.99180 | -8.28594 | 36933 ft | 432 kts | 211° |
| 2026-04-29 16:46 | 31.93961 | -8.32093 | 36937 ft | 432 kts | 211° |
| 2026-04-29 16:46 | 31.88739 | -8.35590 | 36930 ft | 432 kts | 211° |
| 2026-04-29 16:47 | 31.83508 | -8.39088 | 36935 ft | 432 kts | 211° |
| 2026-04-29 16:47 | 31.78278 | -8.42581 | 36934 ft | 432 kts | 211° |
| 2026-04-29 16:48 | 31.73064 | -8.46059 | 36934 ft | 432 kts | 211° |
| 2026-04-29 16:48 | 31.67837 | -8.49540 | 36933 ft | 432 kts | 211° |
| 2026-04-29 16:49 | 31.62603 | -8.53022 | 36935 ft | 432 kts | 211° |
| 2026-04-29 16:49 | 31.57365 | -8.56501 | 36934 ft | 432 kts | 211° |
| 2026-04-29 16:50 | 31.52146 | -8.59965 | 36934 ft | 433 kts | 211° |
| 2026-04-29 16:50 | 31.46902 | -8.63439 | 36927 ft | 433 kts | 211° |
| 2026-04-29 16:51 | 31.41663 | -8.66906 | 36930 ft | 433 kts | 211° |
| 2026-04-29 16:51 | 31.36446 | -8.70354 | 36932 ft | 433 kts | 211° |
| 2026-04-29 16:52 | 31.31216 | -8.73806 | 36916 ft | 433 kts | 211° |
| 2026-04-29 16:52 | 31.25974 | -8.77262 | 36927 ft | 433 kts | 211° |
| 2026-04-29 16:53 | 31.20730 | -8.80714 | 36917 ft | 433 kts | 211° |
| 2026-04-29 16:53 | 31.15476 | -8.84168 | 36915 ft | 433 kts | 211° |
| 2026-04-29 16:54 | 31.10215 | -8.87623 | 36921 ft | 433 kts | 211° |
| 2026-04-29 16:54 | 31.04960 | -8.91070 | 36928 ft | 433 kts | 211° |
| 2026-04-29 16:55 | 30.99710 | -8.94509 | 36928 ft | 433 kts | 211° |
| 2026-04-29 16:55 | 30.94456 | -8.97945 | 36909 ft | 433 kts | 211° |
| 2026-04-29 16:56 | 30.89220 | -9.01367 | 36913 ft | 433 kts | 211° |
| 2026-04-29 16:56 | 30.83998 | -9.04774 | 36899 ft | 433 kts | 211° |
| 2026-04-29 16:57 | 30.78740 | -9.08201 | 36902 ft | 433 kts | 211° |
| 2026-04-29 16:57 | 30.73487 | -9.11619 | 36903 ft | 433 kts | 211° |
| 2026-04-29 16:58 | 30.68243 | -9.15028 | 36902 ft | 433 kts | 211° |
| 2026-04-29 16:58 | 30.62990 | -9.18438 | 36897 ft | 433 kts | 211° |
| 2026-04-29 16:59 | 30.57733 | -9.21847 | 36894 ft | 433 kts | 211° |
| 2026-04-29 16:59 | 30.52475 | -9.25252 | 36885 ft | 433 kts | 211° |
| 2026-04-29 17:00 | 30.47235 | -9.28642 | 36890 ft | 432 kts | 211° |
| 2026-04-29 17:00 | 30.41982 | -9.32036 | 36887 ft | 432 kts | 211° |
| 2026-04-29 17:01 | 30.36724 | -9.35429 | 36890 ft | 432 kts | 211° |
| 2026-04-29 17:01 | 30.31403 | -9.38687 | 36877 ft | 434 kts | 203° |
| 2026-04-29 17:02 | 30.25738 | -9.41155 | 36885 ft | 435 kts | 203° |
| 2026-04-29 17:02 | 30.20098 | -9.43615 | 36889 ft | 435 kts | 203° |
| 2026-04-29 17:03 | 30.14428 | -9.46080 | 36882 ft | 435 kts | 203° |
| 2026-04-29 17:03 | 30.08769 | -9.48538 | 36889 ft | 435 kts | 203° |
| 2026-04-29 17:04 | 30.03099 | -9.50997 | 36891 ft | 435 kts | 203° |
| 2026-04-29 17:04 | 29.97491 | -9.53426 | 36885 ft | 435 kts | 203° |
| 2026-04-29 17:05 | 29.91830 | -9.55886 | 36884 ft | 434 kts | 203° |
| 2026-04-29 17:05 | 29.86144 | -9.58367 | 36890 ft | 435 kts | 203° |
| 2026-04-29 17:06 | 29.80527 | -9.60814 | 36892 ft | 435 kts | 203° |
| 2026-04-29 17:06 | 29.74879 | -9.63272 | 36895 ft | 434 kts | 203° |
| 2026-04-29 17:07 | 29.70179 | -9.65314 | 36896 ft | 434 kts | 203° |
| 2026-04-29 17:07 | 29.63572 | -9.68183 | 36897 ft | 434 kts | 203° |
| 2026-04-29 17:08 | 29.57919 | -9.70634 | 36902 ft | 434 kts | 203° |
| 2026-04-29 17:08 | 29.52280 | -9.73077 | 36902 ft | 434 kts | 203° |
| 2026-04-29 17:09 | 29.46624 | -9.75524 | 36912 ft | 434 kts | 203° |
| 2026-04-29 17:09 | 29.40969 | -9.77967 | 36902 ft | 434 kts | 203° |
| 2026-04-29 17:10 | 29.35315 | -9.80407 | 36906 ft | 434 kts | 203° |
| 2026-04-29 17:10 | 29.29671 | -9.82840 | 36908 ft | 434 kts | 203° |
| 2026-04-29 17:11 | 29.24014 | -9.85276 | 36905 ft | 434 kts | 203° |
| 2026-04-29 17:11 | 29.18366 | -9.87705 | 36911 ft | 434 kts | 203° |
| 2026-04-29 17:12 | 29.12710 | -9.90134 | 36908 ft | 434 kts | 203° |
| 2026-04-29 17:12 | 29.08025 | -9.92145 | 36903 ft | 434 kts | 203° |
| 2026-04-29 17:13 | 29.01420 | -9.94976 | 36910 ft | 434 kts | 203° |
| 2026-04-29 17:13 | 28.95757 | -9.97389 | 36910 ft | 434 kts | 203° |
| 2026-04-29 17:14 | 28.90101 | -9.99797 | 36922 ft | 434 kts | 203° |
| 2026-04-29 17:14 | 28.84478 | -10.02188 | 36907 ft | 433 kts | 203° |
| 2026-04-29 17:15 | 28.78825 | -10.04589 | 36914 ft | 433 kts | 203° |
| 2026-04-29 17:15 | 28.73182 | -10.06984 | 36904 ft | 433 kts | 203° |
| 2026-04-29 17:16 | 28.67541 | -10.09374 | 36903 ft | 433 kts | 203° |
| 2026-04-29 17:16 | 28.62843 | -10.11363 | 36904 ft | 433 kts | 203° |
| 2026-04-29 17:17 | 28.57218 | -10.13741 | 36912 ft | 433 kts | 203° |
| 2026-04-29 17:17 | 28.50612 | -10.16532 | 36911 ft | 433 kts | 203° |
| 2026-04-29 17:18 | 28.45913 | -10.18514 | 36899 ft | 433 kts | 203° |
| 2026-04-29 17:18 | 28.40262 | -10.20896 | 36907 ft | 433 kts | 203° |
| 2026-04-29 17:19 | 28.34663 | -10.23252 | 36903 ft | 433 kts | 203° |
| 2026-04-29 17:19 | 28.28968 | -10.25647 | 36908 ft | 433 kts | 203° |
| 2026-04-29 17:20 | 28.23360 | -10.28002 | 36903 ft | 433 kts | 203° |
| 2026-04-29 17:20 | 28.17702 | -10.30376 | 36899 ft | 433 kts | 203° |
| 2026-04-29 17:21 | 28.12068 | -10.32737 | 36901 ft | 433 kts | 203° |
| 2026-04-29 17:21 | 28.06418 | -10.35102 | 36901 ft | 433 kts | 203° |
| 2026-04-29 17:22 | 28.00765 | -10.37466 | 36910 ft | 433 kts | 203° |
| 2026-04-29 17:22 | 27.95072 | -10.39843 | 36905 ft | 433 kts | 203° |
| 2026-04-29 17:23 | 27.89449 | -10.42189 | 36911 ft | 433 kts | 203° |
| 2026-04-29 17:23 | 27.83830 | -10.44531 | 36911 ft | 432 kts | 203° |
| 2026-04-29 17:24 | 27.78188 | -10.46880 | 36914 ft | 432 kts | 203° |
| 2026-04-29 17:24 | 27.72504 | -10.49243 | 36907 ft | 432 kts | 203° |
| 2026-04-29 17:25 | 27.66888 | -10.51587 | 36908 ft | 432 kts | 204° |
| 2026-04-29 17:25 | 27.61319 | -10.53996 | 36909 ft | 432 kts | 204° |
| 2026-04-29 17:26 | 27.55705 | -10.56416 | 36919 ft | 432 kts | 204° |
| 2026-04-29 17:26 | 27.50092 | -10.58832 | 36910 ft | 431 kts | 204° |
| 2026-04-29 17:27 | 27.44488 | -10.61241 | 36915 ft | 431 kts | 204° |
| 2026-04-29 17:27 | 27.38908 | -10.63637 | 36914 ft | 430 kts | 204° |
| 2026-04-29 17:28 | 27.33309 | -10.66039 | 36912 ft | 430 kts | 204° |
| 2026-04-29 17:28 | 27.27722 | -10.68433 | 36916 ft | 430 kts | 204° |
| 2026-04-29 17:29 | 27.22141 | -10.70822 | 36931 ft | 429 kts | 204° |
| 2026-04-29 17:29 | 27.17512 | -10.72801 | 36914 ft | 429 kts | 204° |
| 2026-04-29 17:30 | 27.10971 | -10.75596 | 36920 ft | 430 kts | 204° |
| 2026-04-29 17:30 | 27.05386 | -10.77978 | 36909 ft | 430 kts | 204° |
| 2026-04-29 17:31 | 26.99794 | -10.80362 | 36916 ft | 429 kts | 204° |
| 2026-04-29 17:31 | 26.94265 | -10.82716 | 36923 ft | 429 kts | 204° |
| 2026-04-29 17:32 | 26.88682 | -10.85090 | 36918 ft | 429 kts | 204° |
| 2026-04-29 17:32 | 26.83105 | -10.87460 | 36917 ft | 429 kts | 204° |
| 2026-04-29 17:33 | 26.77531 | -10.89825 | 36909 ft | 428 kts | 204° |
| 2026-04-29 17:33 | 26.71970 | -10.92183 | 36915 ft | 428 kts | 204° |
| 2026-04-29 17:34 | 26.66395 | -10.94544 | 36919 ft | 428 kts | 204° |
| 2026-04-29 17:34 | 26.60821 | -10.96903 | 36918 ft | 428 kts | 204° |
| 2026-04-29 17:35 | 26.52470 | -11.00431 | 36919 ft | 428 kts | 204° |
| 2026-04-29 17:36 | 26.46915 | -11.02775 | 36918 ft | 428 kts | 204° |
| 2026-04-29 17:36 | 26.41356 | -11.05119 | 36912 ft | 427 kts | 204° |
| 2026-04-29 17:37 | 26.35790 | -11.07462 | 36916 ft | 427 kts | 204° |
| 2026-04-29 17:37 | 26.30263 | -11.09787 | 36915 ft | 427 kts | 204° |
| 2026-04-29 17:38 | 26.24712 | -11.12120 | 36909 ft | 427 kts | 204° |
| 2026-04-29 17:38 | 26.19154 | -11.14453 | 36913 ft | 427 kts | 205° |
| 2026-04-29 17:39 | 26.13593 | -11.16786 | 36931 ft | 427 kts | 204° |
| 2026-04-29 17:39 | 26.08034 | -11.19114 | 36943 ft | 427 kts | 205° |
| 2026-04-29 17:40 | 26.02492 | -11.21434 | 36942 ft | 427 kts | 205° |
| 2026-04-29 17:40 | 25.96930 | -11.23760 | 36945 ft | 427 kts | 205° |
| 2026-04-29 17:41 | 25.91383 | -11.26077 | 36940 ft | 425 kts | 205° |
| 2026-04-29 17:41 | 25.85847 | -11.28387 | 36943 ft | 425 kts | 205° |
| 2026-04-29 17:42 | 25.80306 | -11.30696 | 36941 ft | 425 kts | 205° |
| 2026-04-29 17:42 | 25.74781 | -11.32997 | 36944 ft | 425 kts | 205° |
| 2026-04-29 17:43 | 25.69241 | -11.35302 | 36943 ft | 425 kts | 205° |
| 2026-04-29 17:43 | 25.63732 | -11.37592 | 36943 ft | 425 kts | 205° |
| 2026-04-29 17:44 | 25.58186 | -11.39894 | 36944 ft | 425 kts | 205° |
| 2026-04-29 17:44 | 25.52659 | -11.42187 | 36943 ft | 425 kts | 205° |
| 2026-04-29 17:45 | 25.47121 | -11.44481 | 36943 ft | 425 kts | 205° |
| 2026-04-29 17:45 | 25.41572 | -11.46779 | 36944 ft | 425 kts | 205° |
| 2026-04-29 17:46 | 25.36029 | -11.49071 | 36945 ft | 425 kts | 205° |
| 2026-04-29 17:46 | 25.30496 | -11.51358 | 36942 ft | 425 kts | 205° |
| 2026-04-29 17:47 | 25.24954 | -11.53646 | 36946 ft | 425 kts | 205° |
| 2026-04-29 17:47 | 25.19374 | -11.55831 | 36946 ft | 426 kts | 203° |
| 2026-04-29 17:48 | 25.13763 | -11.57945 | 36943 ft | 426 kts | 203° |
| 2026-04-29 17:48 | 25.08163 | -11.60062 | 36945 ft | 427 kts | 203° |
| 2026-04-29 17:49 | 25.02546 | -11.62184 | 36942 ft | 427 kts | 203° |
| 2026-04-29 17:49 | 24.96918 | -11.64307 | 36944 ft | 427 kts | 203° |
| 2026-04-29 17:50 | 24.91307 | -11.66423 | 36942 ft | 426 kts | 203° |
| 2026-04-29 17:50 | 24.85706 | -11.68533 | 36944 ft | 427 kts | 203° |
| 2026-04-29 17:51 | 24.80085 | -11.70647 | 36944 ft | 427 kts | 203° |
| 2026-04-29 17:51 | 24.74463 | -11.72761 | 36943 ft | 427 kts | 203° |
| 2026-04-29 17:52 | 24.68846 | -11.74870 | 36942 ft | 427 kts | 203° |
| 2026-04-29 17:52 | 24.63221 | -11.76981 | 36944 ft | 427 kts | 203° |
| 2026-04-29 17:53 | 24.57623 | -11.79079 | 36945 ft | 427 kts | 203° |
| 2026-04-29 17:53 | 24.51994 | -11.81188 | 36943 ft | 426 kts | 203° |
| 2026-04-29 17:54 | 24.46379 | -11.83289 | 36935 ft | 426 kts | 203° |
| 2026-04-29 17:54 | 24.40761 | -11.85388 | 36934 ft | 427 kts | 203° |
| 2026-04-29 17:55 | 24.35161 | -11.87480 | 36933 ft | 426 kts | 203° |
| 2026-04-29 17:55 | 24.29544 | -11.89575 | 36934 ft | 426 kts | 203° |
| 2026-04-29 17:56 | 24.23929 | -11.91668 | 36933 ft | 426 kts | 203° |
| 2026-04-29 17:56 | 24.18313 | -11.93760 | 36934 ft | 426 kts | 203° |
| 2026-04-29 17:57 | 24.12712 | -11.95843 | 36934 ft | 426 kts | 203° |
| 2026-04-29 17:57 | 24.07097 | -11.97931 | 36935 ft | 426 kts | 203° |
| 2026-04-29 17:58 | 24.01476 | -12.00018 | 36915 ft | 426 kts | 203° |
| 2026-04-29 17:58 | 23.95854 | -12.02104 | 36931 ft | 426 kts | 203° |
| 2026-04-29 17:59 | 23.91195 | -12.03831 | 36931 ft | 426 kts | 203° |
| 2026-04-29 17:59 | 23.85582 | -12.05910 | 36915 ft | 426 kts | 203° |
| 2026-04-29 18:00 | 23.79959 | -12.07991 | 36912 ft | 427 kts | 203° |
| 2026-04-29 18:00 | 23.74331 | -12.10071 | 36917 ft | 426 kts | 203° |
| 2026-04-29 18:01 | 23.68715 | -12.12145 | 36922 ft | 427 kts | 203° |
| 2026-04-29 18:01 | 23.63106 | -12.14216 | 36929 ft | 427 kts | 203° |
| 2026-04-29 18:02 | 23.57481 | -12.16290 | 36930 ft | 427 kts | 203° |
| 2026-04-29 18:02 | 23.51858 | -12.18362 | 36930 ft | 427 kts | 203° |
| 2026-04-29 18:03 | 23.46217 | -12.20438 | 36918 ft | 427 kts | 203° |
| 2026-04-29 18:03 | 23.40603 | -12.22499 | 36912 ft | 428 kts | 203° |
| 2026-04-29 18:04 | 23.34962 | -12.24570 | 36914 ft | 428 kts | 203° |
| 2026-04-29 18:04 | 23.29318 | -12.26641 | 36912 ft | 428 kts | 203° |
| 2026-04-29 18:05 | 23.23679 | -12.28707 | 36925 ft | 428 kts | 203° |
| 2026-04-29 18:05 | 23.18050 | -12.30767 | 36921 ft | 428 kts | 203° |
| 2026-04-29 18:06 | 23.12392 | -12.32837 | 36917 ft | 428 kts | 203° |
| 2026-04-29 18:06 | 23.06738 | -12.34903 | 36913 ft | 429 kts | 203° |
| 2026-04-29 18:07 | 23.01079 | -12.36970 | 36914 ft | 429 kts | 203° |
| 2026-04-29 18:07 | 22.95434 | -12.39029 | 36915 ft | 429 kts | 203° |
| 2026-04-29 18:08 | 22.89797 | -12.41083 | 36911 ft | 429 kts | 203° |
| 2026-04-29 18:08 | 22.84097 | -12.43159 | 36922 ft | 430 kts | 203° |
| 2026-04-29 18:09 | 22.78469 | -12.45207 | 36920 ft | 430 kts | 203° |
| 2026-04-29 18:09 | 22.72666 | -12.46933 | 36944 ft | 432 kts | 198° |
| 2026-04-29 18:10 | 22.66878 | -12.48479 | 36919 ft | 430 kts | 199° |
| 2026-04-29 18:10 | 22.61066 | -12.50058 | 36911 ft | 431 kts | 199° |
| 2026-04-29 18:11 | 22.55257 | -12.51639 | 36913 ft | 431 kts | 199° |
| 2026-04-29 18:11 | 22.49434 | -12.53223 | 36915 ft | 431 kts | 199° |
| 2026-04-29 18:12 | 22.43633 | -12.54800 | 36913 ft | 431 kts | 199° |
| 2026-04-29 18:12 | 22.37816 | -12.56379 | 36908 ft | 431 kts | 199° |
| 2026-04-29 18:13 | 22.31997 | -12.57957 | 36925 ft | 431 kts | 199° |
| 2026-04-29 18:13 | 22.26170 | -12.59537 | 36919 ft | 431 kts | 199° |
| 2026-04-29 18:14 | 22.20364 | -12.61109 | 36916 ft | 431 kts | 199° |
| 2026-04-29 18:14 | 22.14537 | -12.62686 | 36924 ft | 431 kts | 199° |
| 2026-04-29 18:15 | 22.08712 | -12.64260 | 36924 ft | 431 kts | 199° |
| 2026-04-29 18:15 | 22.02883 | -12.65835 | 36917 ft | 431 kts | 199° |
| 2026-04-29 18:16 | 21.97075 | -12.67402 | 36924 ft | 432 kts | 198° |
| 2026-04-29 18:16 | 21.91275 | -12.68966 | 36921 ft | 433 kts | 198° |
| 2026-04-29 18:17 | 21.85425 | -12.70542 | 36918 ft | 433 kts | 198° |
| 2026-04-29 18:17 | 21.79572 | -12.72119 | 36917 ft | 433 kts | 198° |
| 2026-04-29 18:18 | 21.73743 | -12.73686 | 36921 ft | 433 kts | 198° |
| 2026-04-29 18:18 | 21.67896 | -12.75257 | 36917 ft | 432 kts | 198° |
| 2026-04-29 18:19 | 21.62055 | -12.76826 | 36917 ft | 433 kts | 198° |
| 2026-04-29 18:19 | 21.56216 | -12.78392 | 36919 ft | 433 kts | 198° |
| 2026-04-29 18:20 | 21.50383 | -12.79956 | 36910 ft | 433 kts | 198° |
| 2026-04-29 18:20 | 21.44534 | -12.81523 | 36915 ft | 433 kts | 198° |
| 2026-04-29 18:21 | 21.38692 | -12.83086 | 36916 ft | 433 kts | 198° |
| 2026-04-29 18:21 | 21.32840 | -12.84651 | 36916 ft | 433 kts | 198° |
| 2026-04-29 18:22 | 21.27009 | -12.86209 | 36907 ft | 433 kts | 198° |
| 2026-04-29 18:22 | 21.21160 | -12.87771 | 36917 ft | 433 kts | 198° |
| 2026-04-29 18:23 | 21.15302 | -12.89334 | 36908 ft | 433 kts | 198° |
| 2026-04-29 18:23 | 21.09450 | -12.90893 | 36914 ft | 434 kts | 198° |
| 2026-04-29 18:24 | 21.03588 | -12.92455 | 36923 ft | 434 kts | 198° |
| 2026-04-29 18:24 | 20.97750 | -12.94008 | 36917 ft | 434 kts | 198° |
| 2026-04-29 18:25 | 20.91891 | -12.95566 | 36918 ft | 434 kts | 198° |
| 2026-04-29 18:25 | 20.86028 | -12.97124 | 36934 ft | 434 kts | 198° |
| 2026-04-29 18:26 | 20.80180 | -12.98676 | 36936 ft | 434 kts | 198° |
| 2026-04-29 18:26 | 20.74332 | -13.00227 | 36936 ft | 434 kts | 198° |
| 2026-04-29 18:27 | 20.68459 | -13.01784 | 36931 ft | 434 kts | 198° |
| 2026-04-29 18:27 | 20.62592 | -13.03338 | 36938 ft | 435 kts | 198° |
| 2026-04-29 18:28 | 20.56721 | -13.04892 | 36934 ft | 435 kts | 198° |
| 2026-04-29 18:28 | 20.50914 | -13.06564 | 36914 ft | 429 kts | 208° |
| 2026-04-29 18:28 | 20.48378 | -13.08152 | 36949 ft | 422 kts | 219° |
| 2026-04-29 18:29 | 20.45962 | -13.09966 | 36900 ft | 426 kts | 218° |
| 2026-04-29 18:29 | 20.41158 | -13.13643 | 36949 ft | 426 kts | 219° |
| 2026-04-29 18:30 | 20.36393 | -13.17367 | 36932 ft | 425 kts | 219° |
| 2026-04-29 18:30 | 20.31672 | -13.21071 | 36938 ft | 425 kts | 219° |
| 2026-04-29 18:31 | 20.26912 | -13.24804 | 36932 ft | 425 kts | 219° |
| 2026-04-29 18:31 | 20.22114 | -13.28565 | 36933 ft | 425 kts | 219° |
| 2026-04-29 18:32 | 20.17376 | -13.32276 | 36935 ft | 426 kts | 219° |
| 2026-04-29 18:32 | 20.10231 | -13.37866 | 36934 ft | 426 kts | 219° |
| 2026-04-29 18:33 | 20.05455 | -13.41600 | 36938 ft | 426 kts | 219° |
| 2026-04-29 18:33 | 20.00652 | -13.45351 | 36935 ft | 426 kts | 219° |
| 2026-04-29 18:34 | 19.97482 | -13.47826 | 36933 ft | 426 kts | 219° |
| 2026-04-29 18:34 | 19.91121 | -13.52787 | 36933 ft | 427 kts | 219° |
| 2026-04-29 18:35 | 19.86331 | -13.56520 | 36935 ft | 427 kts | 219° |
| 2026-04-29 18:35 | 19.81532 | -13.60257 | 36933 ft | 427 kts | 219° |
| 2026-04-29 18:36 | 19.76736 | -13.63989 | 36932 ft | 427 kts | 219° |
| 2026-04-29 18:36 | 19.71956 | -13.67705 | 36933 ft | 427 kts | 219° |
| 2026-04-29 18:37 | 19.67163 | -13.71428 | 36933 ft | 427 kts | 219° |
| 2026-04-29 18:37 | 19.62361 | -13.75156 | 36928 ft | 427 kts | 219° |
| 2026-04-29 18:38 | 19.57568 | -13.78875 | 36931 ft | 427 kts | 219° |
| 2026-04-29 18:38 | 19.52797 | -13.82572 | 36930 ft | 427 kts | 219° |
| 2026-04-29 18:39 | 19.48792 | -13.85675 | 36931 ft | 428 kts | 219° |
| 2026-04-29 18:39 | 19.43979 | -13.89401 | 36927 ft | 427 kts | 219° |
| 2026-04-29 18:40 | 19.39182 | -13.93111 | 36921 ft | 428 kts | 219° |
| 2026-04-29 18:40 | 19.34365 | -13.96834 | 36911 ft | 428 kts | 219° |
| 2026-04-29 18:41 | 19.24785 | -14.04231 | 36921 ft | 428 kts | 219° |
| 2026-04-29 18:42 | 19.19972 | -14.07942 | 36915 ft | 429 kts | 218° |
| 2026-04-29 18:42 | 19.15148 | -14.11660 | 36913 ft | 429 kts | 218° |
| 2026-04-29 18:43 | 19.10335 | -14.15366 | 36920 ft | 429 kts | 218° |
| 2026-04-29 18:43 | 19.05510 | -14.19078 | 36913 ft | 429 kts | 218° |
| 2026-04-29 18:44 | 19.00688 | -14.22787 | 36912 ft | 429 kts | 218° |
| 2026-04-29 18:44 | 18.95852 | -14.26502 | 36920 ft | 430 kts | 218° |
| 2026-04-29 18:45 | 18.91022 | -14.30210 | 36906 ft | 430 kts | 218° |
| 2026-04-29 18:45 | 18.86181 | -14.33925 | 36923 ft | 430 kts | 218° |
| 2026-04-29 18:46 | 18.81349 | -14.37629 | 36918 ft | 430 kts | 218° |
| 2026-04-29 18:46 | 18.76498 | -14.41346 | 36914 ft | 431 kts | 218° |
| 2026-04-29 18:47 | 18.71660 | -14.45049 | 36923 ft | 430 kts | 218° |
| 2026-04-29 18:47 | 18.66813 | -14.48758 | 36924 ft | 431 kts | 218° |
| 2026-04-29 18:48 | 18.61952 | -14.52474 | 36917 ft | 431 kts | 218° |
| 2026-04-29 18:48 | 18.57100 | -14.56180 | 36904 ft | 431 kts | 218° |
| 2026-04-29 18:49 | 18.52242 | -14.59888 | 36915 ft | 431 kts | 218° |
| 2026-04-29 18:49 | 18.47399 | -14.63583 | 36899 ft | 431 kts | 218° |
| 2026-04-29 18:50 | 18.42535 | -14.67290 | 36905 ft | 432 kts | 218° |
| 2026-04-29 18:50 | 18.37670 | -14.70997 | 36911 ft | 432 kts | 218° |
| 2026-04-29 18:51 | 18.32824 | -14.74685 | 36904 ft | 432 kts | 218° |
| 2026-04-29 18:51 | 18.27973 | -14.78375 | 36902 ft | 432 kts | 218° |
| 2026-04-29 18:52 | 18.23109 | -14.82072 | 36895 ft | 432 kts | 218° |
| 2026-04-29 18:52 | 18.18241 | -14.85770 | 36900 ft | 432 kts | 218° |
| 2026-04-29 18:53 | 18.13366 | -14.89470 | 36896 ft | 432 kts | 218° |
| 2026-04-29 18:53 | 18.08522 | -14.93144 | 36885 ft | 432 kts | 218° |
| 2026-04-29 18:54 | 18.03641 | -14.96844 | 36889 ft | 432 kts | 218° |
| 2026-04-29 18:54 | 17.98769 | -15.00535 | 36896 ft | 432 kts | 218° |
| 2026-04-29 18:55 | 17.93895 | -15.04225 | 36899 ft | 433 kts | 218° |
| 2026-04-29 18:55 | 17.89008 | -15.07922 | 36895 ft | 434 kts | 218° |
| 2026-04-29 18:56 | 17.84108 | -15.11627 | 36898 ft | 433 kts | 218° |
| 2026-04-29 18:56 | 17.79220 | -15.15320 | 36904 ft | 433 kts | 218° |
| 2026-04-29 18:57 | 17.74319 | -15.19024 | 36893 ft | 434 kts | 218° |
| 2026-04-29 18:57 | 17.69445 | -15.22705 | 36894 ft | 434 kts | 218° |
| 2026-04-29 18:58 | 17.64547 | -15.26402 | 36894 ft | 434 kts | 218° |
| 2026-04-29 18:58 | 17.59643 | -15.30106 | 36896 ft | 434 kts | 218° |
| 2026-04-29 18:59 | 17.54745 | -15.33803 | 36900 ft | 434 kts | 218° |
| 2026-04-29 18:59 | 17.49868 | -15.37481 | 36898 ft | 434 kts | 218° |
| 2026-04-29 19:00 | 17.44991 | -15.41157 | 36887 ft | 434 kts | 218° |
| 2026-04-29 19:00 | 17.40065 | -15.44868 | 36887 ft | 434 kts | 218° |
| 2026-04-29 19:01 | 17.35159 | -15.48560 | 36891 ft | 434 kts | 218° |
| 2026-04-29 19:01 | 17.30277 | -15.52232 | 36887 ft | 434 kts | 218° |
| 2026-04-29 19:02 | 17.26183 | -15.55310 | 36890 ft | 434 kts | 218° |
| 2026-04-29 19:02 | 17.20483 | -15.59592 | 36887 ft | 435 kts | 218° |
| 2026-04-29 19:03 | 17.15577 | -15.63275 | 36890 ft | 435 kts | 218° |
| 2026-04-29 19:03 | 17.10656 | -15.66967 | 36885 ft | 435 kts | 218° |
| 2026-04-29 19:04 | 17.05755 | -15.70641 | 36893 ft | 435 kts | 218° |
| 2026-04-29 19:04 | 17.00832 | -15.74331 | 36885 ft | 435 kts | 218° |
| 2026-04-29 19:05 | 16.95903 | -15.78022 | 36886 ft | 436 kts | 218° |
| 2026-04-29 19:05 | 16.90974 | -15.81711 | 36892 ft | 436 kts | 218° |
| 2026-04-29 19:06 | 16.86063 | -15.85384 | 36895 ft | 436 kts | 217° |
| 2026-04-29 19:07 | 16.78658 | -15.90917 | 36904 ft | 437 kts | 217° |
| 2026-04-29 19:07 | 16.73709 | -15.94612 | 36900 ft | 437 kts | 218° |
| 2026-04-29 19:08 | 16.68776 | -15.98293 | 36902 ft | 437 kts | 217° |
| 2026-04-29 19:08 | 16.63825 | -16.01985 | 36913 ft | 437 kts | 217° |
| 2026-04-29 19:09 | 16.58873 | -16.05676 | 36900 ft | 437 kts | 217° |
| 2026-04-29 19:09 | 16.53917 | -16.09366 | 36902 ft | 438 kts | 217° |
| 2026-04-29 19:10 | 16.48958 | -16.13051 | 36910 ft | 438 kts | 217° |
| 2026-04-29 19:10 | 16.44031 | -16.16717 | 36911 ft | 438 kts | 217° |
| 2026-04-29 19:11 | 16.39067 | -16.20404 | 36911 ft | 438 kts | 217° |
| 2026-04-29 19:11 | 16.34097 | -16.24094 | 36916 ft | 438 kts | 217° |
| 2026-04-29 19:12 | 16.29129 | -16.27779 | 36917 ft | 438 kts | 217° |
| 2026-04-29 19:12 | 16.24178 | -16.31450 | 36936 ft | 438 kts | 217° |
| 2026-04-29 19:13 | 16.19210 | -16.35131 | 36933 ft | 438 kts | 217° |
| 2026-04-29 19:13 | 16.14242 | -16.38809 | 36934 ft | 438 kts | 217° |
| 2026-04-29 19:14 | 16.09271 | -16.42488 | 36934 ft | 438 kts | 217° |
| 2026-04-29 19:14 | 16.04284 | -16.46038 | 36909 ft | 440 kts | 211° |
| 2026-04-29 19:15 | 15.98920 | -16.49109 | 36933 ft | 441 kts | 211° |
| 2026-04-29 19:15 | 15.93539 | -16.52169 | 36942 ft | 441 kts | 211° |
| 2026-04-29 19:16 | 15.88148 | -16.55228 | 36934 ft | 441 kts | 211° |
| 2026-04-29 19:16 | 15.82772 | -16.58275 | 36934 ft | 441 kts | 211° |
| 2026-04-29 19:16 | 15.80077 | -16.59802 | 36747 ft | 439 kts | 211° |
| 2026-04-29 19:17 | 15.77395 | -16.61321 | 35969 ft | 440 kts | 211° |
| 2026-04-29 19:17 | 15.74706 | -16.62844 | 35247 ft | 441 kts | 211° |
| 2026-04-29 19:17 | 15.72007 | -16.64372 | 34510 ft | 442 kts | 210° |
| 2026-04-29 19:17 | 15.69307 | -16.65900 | 33741 ft | 443 kts | 210° |
| 2026-04-29 19:18 | 15.66603 | -16.67430 | 32955 ft | 445 kts | 210° |
| 2026-04-29 19:18 | 15.65713 | -16.67933 | 32691 ft | 446 kts | 210° |
| 2026-04-29 19:18 | 15.61155 | -16.70511 | 31292 ft | 451 kts | 210° |
| 2026-04-29 19:18 | 15.59319 | -16.71549 | 30720 ft | 455 kts | 210° |
| 2026-04-29 19:19 | 15.55575 | -16.73665 | 29510 ft | 461 kts | 210° |
| 2026-04-29 19:19 | 15.52753 | -16.75262 | 28548 ft | 463 kts | 210° |
| 2026-04-29 19:19 | 15.50868 | -16.76325 | 27900 ft | 466 kts | 210° |
| 2026-04-29 19:19 | 15.48014 | -16.77935 | 26877 ft | 470 kts | 210° |
| 2026-04-29 19:20 | 15.45143 | -16.79554 | 26023 ft | 469 kts | 210° |
| 2026-04-29 19:20 | 15.41380 | -16.81678 | 25034 ft | 465 kts | 210° |
| 2026-04-29 19:20 | 15.39463 | -16.82759 | 24511 ft | 467 kts | 210° |
| 2026-04-29 19:20 | 15.36598 | -16.84375 | 23762 ft | 468 kts | 210° |
| 2026-04-29 19:21 | 15.33754 | -16.85978 | 23007 ft | 464 kts | 210° |
| 2026-04-29 19:21 | 15.30842 | -16.87384 | 22154 ft | 463 kts | 199° |
| 2026-04-29 19:21 | 15.27753 | -16.88214 | 21382 ft | 461 kts | 195° |
| 2026-04-29 19:21 | 15.24657 | -16.89007 | 20696 ft | 456 kts | 194° |
| 2026-04-29 19:22 | 15.21577 | -16.89776 | 19963 ft | 452 kts | 194° |
| 2026-04-29 19:22 | 15.18550 | -16.90521 | 19310 ft | 447 kts | 194° |
| 2026-04-29 19:22 | 15.15528 | -16.91262 | 18535 ft | 446 kts | 194° |
| 2026-04-29 19:22 | 15.12532 | -16.91996 | 17975 ft | 439 kts | 194° |
| 2026-04-29 19:23 | 15.09566 | -16.92723 | 17110 ft | 440 kts | 194° |
| 2026-04-29 19:23 | 15.06607 | -16.93447 | 16537 ft | 433 kts | 194° |
| 2026-04-29 19:23 | 15.03695 | -16.94159 | 16009 ft | 427 kts | 194° |
| 2026-04-29 19:23 | 15.00824 | -16.94861 | 15117 ft | 428 kts | 194° |
| 2026-04-29 19:24 | 14.97953 | -16.95563 | 14180 ft | 417 kts | 194° |
| 2026-04-29 19:24 | 14.95163 | -16.96247 | 13186 ft | 408 kts | 194° |
| 2026-04-29 19:24 | 14.92445 | -16.96908 | 12363 ft | 397 kts | 193° |
| 2026-04-29 19:24 | 14.89801 | -16.97131 | 12371 ft | 366 kts | 180° |
| 2026-04-29 19:25 | 14.87380 | -16.97127 | 12345 ft | 340 kts | 181° |
| 2026-04-29 19:25 | 14.85100 | -16.97118 | 12342 ft | 315 kts | 180° |
| 2026-04-29 19:25 | 14.82997 | -16.97104 | 12328 ft | 292 kts | 180° |
| 2026-04-29 19:25 | 14.81034 | -16.97088 | 12241 ft | 273 kts | 180° |
| 2026-04-29 19:26 | 14.79175 | -16.97073 | 12119 ft | 267 kts | 180° |
| 2026-04-29 19:26 | 14.77258 | -16.97056 | 12014 ft | 282 kts | 180° |
| 2026-04-29 19:26 | 14.75267 | -16.97039 | 11794 ft | 288 kts | 180° |
| 2026-04-29 19:26 | 14.73256 | -16.97021 | 11521 ft | 289 kts | 180° |
| 2026-04-29 19:27 | 14.71251 | -16.97003 | 11269 ft | 289 kts | 180° |
| 2026-04-29 19:27 | 14.69251 | -16.96985 | 11008 ft | 288 kts | 180° |
| 2026-04-29 19:27 | 14.67251 | -16.96964 | 10745 ft | 287 kts | 180° |
| 2026-04-29 19:27 | 14.65254 | -16.96948 | 10476 ft | 287 kts | 180° |
| 2026-04-29 19:28 | 14.63258 | -16.96931 | 10214 ft | 287 kts | 180° |
| 2026-04-29 19:28 | 14.61264 | -16.96913 | 9949 ft | 286 kts | 180° |
| 2026-04-29 19:28 | 14.59273 | -16.96895 | 9681 ft | 286 kts | 180° |
| 2026-04-29 19:28 | 14.57288 | -16.96878 | 9413 ft | 285 kts | 180° |
| 2026-04-29 19:29 | 14.55303 | -16.96860 | 9145 ft | 285 kts | 180° |
| 2026-04-29 19:29 | 14.53321 | -16.96842 | 8881 ft | 284 kts | 180° |
| 2026-04-29 19:29 | 14.51347 | -16.96824 | 8614 ft | 283 kts | 180° |
| 2026-04-29 19:29 | 14.49389 | -16.96807 | 8352 ft | 279 kts | 180° |
| 2026-04-29 19:30 | 14.47468 | -16.96790 | 8087 ft | 271 kts | 180° |
| 2026-04-29 19:30 | 14.45619 | -16.96774 | 7839 ft | 259 kts | 180° |
| 2026-04-29 19:30 | 14.43866 | -16.96758 | 7613 ft | 249 kts | 180° |
| 2026-04-29 19:30 | 14.42161 | -16.96743 | 7406 ft | 242 kts | 180° |
| 2026-04-29 19:31 | 14.40495 | -16.96822 | 7140 ft | 240 kts | 194° |
| 2026-04-29 19:31 | 14.39031 | -16.97591 | 6857 ft | 238 kts | 224° |
| 2026-04-29 19:31 | 14.38123 | -16.98983 | 6634 ft | 235 kts | 252° |
| 2026-04-29 19:31 | 14.37884 | -17.00640 | 6473 ft | 234 kts | 268° |
| 2026-04-29 19:32 | 14.37827 | -17.02328 | 6332 ft | 235 kts | 268° |
| 2026-04-29 19:32 | 14.37784 | -17.04003 | 6081 ft | 233 kts | 269° |
| 2026-04-29 19:32 | 14.37751 | -17.05640 | 5927 ft | 224 kts | 269° |
| 2026-04-29 19:32 | 14.37694 | -17.07220 | 5696 ft | 218 kts | 260° |
| 2026-04-29 19:33 | 14.37052 | -17.08606 | 5348 ft | 216 kts | 225° |
| 2026-04-29 19:33 | 14.35789 | -17.09415 | 4980 ft | 216 kts | 202° |
| 2026-04-29 19:33 | 14.34418 | -17.10057 | 4608 ft | 217 kts | 206° |
| 2026-04-29 19:33 | 14.33061 | -17.10745 | 4270 ft | 217 kts | 207° |
| 2026-04-29 19:34 | 14.31704 | -17.11415 | 3934 ft | 217 kts | 201° |
| 2026-04-29 19:34 | 14.30228 | -17.11566 | 3582 ft | 215 kts | 167° |
| 2026-04-29 19:34 | 14.28936 | -17.10847 | 3215 ft | 213 kts | 131° |
| 2026-04-29 19:34 | 14.28294 | -17.09543 | 2945 ft | 206 kts | 95° |
| 2026-04-29 19:35 | 14.28490 | -17.08091 | 3001 ft | 205 kts | 62° |
| 2026-04-29 19:35 | 14.29409 | -17.06992 | 3036 ft | 205 kts | 30° |
| 2026-04-29 19:35 | 14.30739 | -17.06573 | 3038 ft | 204 kts | 358° |
| 2026-04-29 19:35 | 14.32157 | -17.06726 | 3095 ft | 203 kts | 353° |
| 2026-04-29 19:36 | 14.33541 | -17.06857 | 3137 ft | 202 kts | 355° |
| 2026-04-29 19:36 | 14.34952 | -17.06932 | 3109 ft | 201 kts | 357° |
| 2026-04-29 19:36 | 14.36350 | -17.06974 | 3119 ft | 202 kts | 358° |
| 2026-04-29 19:36 | 14.37755 | -17.06998 | 3155 ft | 202 kts | 359° |
| 2026-04-29 19:37 | 14.39158 | -17.07016 | 3193 ft | 202 kts | 359° |
| 2026-04-29 19:37 | 14.40107 | -17.07028 | 3209 ft | 202 kts | 358° |
| 2026-04-29 19:37 | 14.41967 | -17.07047 | 3220 ft | 202 kts | 359° |
| 2026-04-29 19:37 | 14.43394 | -17.07060 | 3214 ft | 202 kts | 359° |
| 2026-04-29 19:38 | 14.44780 | -17.07073 | 3220 ft | 201 kts | 359° |
| 2026-04-29 19:38 | 14.46181 | -17.07087 | 3212 ft | 201 kts | 359° |
| 2026-04-29 19:38 | 14.47565 | -17.07099 | 3202 ft | 192 kts | 359° |
| 2026-04-29 19:38 | 14.48854 | -17.07111 | 3177 ft | 181 kts | 359° |
| 2026-04-29 19:39 | 14.50108 | -17.07123 | 3232 ft | 179 kts | 359° |
| 2026-04-29 19:39 | 14.51308 | -17.07134 | 2993 ft | 165 kts | 358° |
| 2026-04-29 19:39 | 14.52424 | -17.07145 | 2855 ft | 159 kts | 359° |
| 2026-04-29 19:39 | 14.53523 | -17.07153 | 2604 ft | 157 kts | 358° |
| 2026-04-29 19:40 | 14.54607 | -17.07181 | 2313 ft | 155 kts | 359° |
| 2026-04-29 19:40 | 14.55685 | -17.07203 | 2085 ft | 153 kts | 359° |
| 2026-04-29 19:40 | 14.56741 | -17.07206 | 2016 ft | 154 kts | 0° |
| 2026-04-29 19:40 | 14.57806 | -17.07181 | 1803 ft | 153 kts | 2° |
| 2026-04-29 19:41 | 14.58856 | -17.07131 | 1556 ft | 151 kts | 1° |
| 2026-04-29 19:41 | 14.59903 | -17.07163 | 1392 ft | 151 kts | 355° |
| 2026-04-29 19:41 | 14.60948 | -17.07212 | 1176 ft | 150 kts | 359° |
| 2026-04-29 19:41 | 14.61992 | -17.07235 | 985 ft | 149 kts | 358° |
| 2026-04-29 19:42 | 14.63030 | -17.07247 | 756 ft | 149 kts | 358° |
| 2026-04-29 19:42 | 14.63730 | -17.07252 | 658 ft | 149 kts | 1° |
| 2026-04-29 19:42 | 14.65093 | -17.07268 | 381 ft | 149 kts | 358° |
| 2026-04-29 19:42 | 14.66108 | -17.07270 | 293 ft | 137 kts | 359° |
| 2026-04-29 19:43 | 14.66848 | -17.07284 | 301 ft | 70 kts | 359° |
| 2026-04-29 19:43 | 14.67257 | -17.07291 | 298 ft | 42 kts | 360° |
| 2026-04-29 19:43 | 14.67468 | -17.07289 | 295 ft | 29 kts | 2° |
| 2026-04-29 19:43 | 14.67672 | -17.07261 | 291 ft | 23 kts | 19° |
| 2026-04-29 19:44 | 14.67782 | -17.07207 | 288 ft | 15 kts | 29° |
| 2026-04-29 19:44 | 14.67838 | -17.07119 | 290 ft | 15 kts | 106° |
| 2026-04-29 19:44 | 14.67772 | -17.07093 | 293 ft | 10 kts | 185° |
| 2026-04-29 19:44 | 14.67702 | -17.07096 | 292 ft | 10 kts | 182° |
| 2026-04-29 19:45 | 14.67625 | -17.07097 | 298 ft | 12 kts | 179° |
| 2026-04-29 19:45 | 14.67544 | -17.07074 | 298 ft | 13 kts | 133° |
| 2026-04-29 19:45 | 14.67531 | -17.07016 | 295 ft | 8 kts | 103° |
| 2026-04-29 19:45 | 14.67492 | -17.06982 | 297 ft | 7 kts | 174° |
| 2026-04-29 19:46 | 14.67438 | -17.06981 | 299 ft | 9 kts | 179° |
| 2026-04-29 19:46 | 14.67359 | -17.06981 | 296 ft | 13 kts | 180° |
| 2026-04-29 19:46 | 14.67272 | -17.06980 | 299 ft | 10 kts | 178° |
| 2026-04-29 19:46 | 14.67194 | -17.06979 | 298 ft | 13 kts | 179° |
| 2026-04-29 19:47 | 14.67123 | -17.06978 | 298 ft | 9 kts | 179° |
| 2026-04-29 19:47 | 14.67082 | -17.06966 | 295 ft | 4 kts | 121° |
| 2026-04-29 19:47 | 14.67078 | -17.06927 | 295 ft | 7 kts | 90° |
| 2026-04-29 19:47 | 14.67078 | -17.06874 | 298 ft | 6 kts | 89° |
| 2026-04-29 19:48 | 14.67079 | -17.06856 | 296 ft | 0 kts | 89° |